• Join FlightAware (Why Join?)
  • Login
  • US Flag 
10:36PM EDT


 

Airport Tracker/Info


-or-


 

Live Flight TrackerFlight Track Log ✈ N858PR ✈ 30-Apr-2013 ✈ KMTH - KMLB

Flight Track Log - Related Links

Times and Time Zones

All times are in EDT time to prevent confusion due to time zone crossing. See the N858PR flight status page for this flight to view local times or setup timezone preferences in your user account.

Time Position Orientation Groundspeed Altitude Reporting Facility
EDT Latitude Longitude Course Direction KTS MPH feet Rate Location/Type
08:29AM 24.8956 -81.0186 358° North 185 213 3,900  Level Miami Center
08:30AM 24.9375 -81.0086 12° North 170 196 4,800 780 Climbing Miami Center
08:31AM 24.9794 -81.0008 10° North 157 181 5,500 600 Climbing Miami Center
08:32AM 25.0233 -80.9978 North 157 181 6,100 600 Climbing Miami Center
08:33AM 25.0694 -80.9947 North 157 181 6,800 420 Climbing Miami Center
08:34AM 25.0490 -81.0507 358° North  Level FlightAware Approximate
08:34AM 25.1156 -80.9894 North 162 186 7,000  Level Miami Center
08:35AM 25.1658 -80.9889 North 162 186 7,000  Level Miami Center
08:36AM 25.2181 -80.9861 North 174 200 7,000  Level Miami Center
08:37AM 25.2703 -80.9833 North 179 206 7,000  Level Miami Center
08:38AM 25.3225 -80.9828 North 179 206 7,000  Level Miami Center
08:39AM 25.3747 -80.9822 North 179 206 7,000  Level Miami Center
08:40AM 25.4269 -80.9794 North 179 206 7,000  Level Miami Center
08:41AM 25.4772 -80.9764 North 179 206 7,000  Level Miami Center
08:42AM 25.5294 -80.9781 358° North 179 206 7,000  Level Miami Center
08:43AM 25.5817 -80.9800 358° North 179 206 7,000  Level Miami Center
08:44AM 25.6339 -80.9772 North 179 206 7,000  Level Miami Center
08:45AM 25.6861 -80.9789 358° North 179 206 7,000  Level Miami Center
08:46AM 25.7361 -80.9831 356° North 179 206 7,000  Level Miami Center
08:47AM 25.7861 -80.9847 358° North 179 206 7,000  Level Miami Center
08:48AM 25.8358 -81.0047 340° North 179 206 7,000  Level Miami Center
08:49AM 25.8833 -81.0181 346° North 179 206 7,000  Level Miami Center
08:50AM 25.9331 -81.0336 344° North 179 206 7,000 -60 Level Miami Center
08:51AM 25.9808 -81.0444 348° North 179 206 6,900 -60 Descending Miami Center
08:52AM 26.0306 -81.0556 349° North 179 206 6,900  Level Miami Center
08:53AM 26.0783 -81.0664 348° North 179 206 6,900  Level Miami Center
08:54AM 26.1303 -81.0753 351° North 179 206 6,900  Level Miami Center
08:55AM 26.1803 -81.0817 353° North 179 206 6,900  Level Miami Center
08:56AM 26.2289 -81.0625 19° North 174 200 6,900  Level Miami Center
08:57AM 26.2811 -81.0550 North 179 206 6,900  Level Miami Center
08:58AM 26.3297 -81.0428 13° North 179 206 6,900  Level Miami Center
08:59AM 26.3781 -81.0306 13° North 179 206 7,000  Climbing Miami Center
09:00AM 26.4347 -81.0189 10° North 184 212 7,000  Level Miami Center
09:01AM 26.4828 -81.0158 North 177 204 7,000  Level Miami Center
09:02AM 26.5350 -81.0200 356° North 182 209 7,000  Level Miami Center
09:03AM 26.5911 -81.0219 358° North 182 209 7,000  Level Miami Center
09:04AM 26.6433 -81.0239 358° North 176 203 7,000  Level Miami Center
09:05AM 26.6911 -81.0303 353° North 182 209 7,000  Level Miami Center
09:06AM 26.7392 -81.0319 358° North 177 204 7,000  Level Miami Center
09:07AM 26.7914 -81.0361 356° North 177 204 7,000  Level Miami Center
09:08AM 26.8478 -81.0264 North 177 204 7,000  Level Miami Center
09:09AM 26.8983 -81.0119 14° North 177 204 7,000  Level Miami Center
09:10AM 26.9450 -80.9903 22° Northeast 182 209 7,000  Level Miami Center
09:11AM 26.9872 -80.9708 22° Northeast 182 209 7,000  Level Miami Center
09:12AM 27.0422 -80.9517 17° North 182 209 7,000  Level Miami Center
09:13AM 27.0928 -80.9350 16° North 182 209 7,000  Level Miami Center
09:14AM 27.1431 -80.9228 12° North 182 209 7,000  Level Miami Center
09:15AM 27.1872 -80.9125 12° North 182 209 7,000  Level Miami Center
09:16AM 27.2378 -80.8981 14° North 182 209 7,000  Level Miami Center
09:17AM 27.2925 -80.8836 13° North 182 209 7,000  Level Miami Center
09:18AM 27.3428 -80.8711 12° North 182 209 7,000 -300 Level Miami Center
09:19AM 27.3933 -80.8567 14° North 182 209 6,500 -540 Descending Miami Center
09:20AM 27.4481 -80.8422 13° North 187 215 6,000 -480 Descending Miami Center
09:21AM 27.5006 -80.8275 14° North 187 215 5,600 -480 Descending Miami Center
09:22AM 27.5533 -80.8131 14° North 187 215 5,100 -600 Descending Miami Center
09:23AM 27.6033 -80.8100 North 187 215 4,500 -540 Descending Miami Center
09:24AM 27.6558 -80.8047 North 187 215 4,100 -240 Descending Miami Center
09:25AM 27.7061 -80.7947 10° North 174 200 4,100 -300 Level Miami Center
09:26AM 27.7564 -80.7847 10° North 174 200 3,500 -420 Descending Miami Center
09:28AM 27.8500 -80.7667 10° North 166 191 3,000 -180 Descending Orlando TRACON
09:29AM 27.9000 -80.7500 16° North 159 183 3,000  Level Orlando TRACON
09:30AM 27.9333 -80.7500 360° North 157 181 3,000 -60 Level Orlando TRACON
09:31AM 27.9833 -80.7333 16° North 164 189 2,900 -360 Descending Orlando TRACON
09:32AM 28.0000 -80.6833 69° East 179 206 2,400 -420 Descending Orlando TRACON
09:33AM 28.0333 -80.6333 53° Northeast 171 197 2,100 -180 Descending Orlando TRACON
09:34AM 28.0667 -80.5833 53° Northeast 158 182 2,100 -360 Level Orlando TRACON
09:35AM 28.1000 -80.5667 24° Northeast 156 180 1,500 -900 Descending Orlando TRACON
09:36AM 28.1000 -80.6167 270° West 127 146 500 -1,020 Descending Orlando TRACON
09:38AM 28.1000 -80.6333 341° North  Level FlightAware Approximate
09:45AM 28.1028 -80.6453 341° North  Level Estimated
09:46AM 28.1028 -80.6453 341° North  Level Estimated
09:47AM 28.1028 -80.6453 341° North  Level Estimated
09:48AM 28.1028 -80.6453 341° North  Level Estimated